sensor_id;sensor_type;location;lat;lon;timestamp;P1;durP1;ratioP1;P2;durP2;ratioP2
20014;SDS011;61787;42.022;23.078;2023-05-29T00:00:33;3.60;;;2.80;;
20014;SDS011;61787;42.022;23.078;2023-05-29T00:01:35;4.77;;;3.10;;
20014;SDS011;61787;42.022;23.078;2023-05-29T00:02:37;7.80;;;3.17;;
20014;SDS011;61787;42.022;23.078;2023-05-29T00:03:38;4.10;;;2.80;;
20014;SDS011;61787;42.022;23.078;2023-05-29T00:04:41;6.87;;;3.03;;
20014;SDS011;61787;42.022;23.078;2023-05-29T00:05:42;5.60;;;2.70;;
20014;SDS011;61787;42.022;23.078;2023-05-29T00:06:44;4.50;;;3.07;;
20014;SDS011;61787;42.022;23.078;2023-05-29T00:07:45;5.73;;;3.00;;
20014;SDS011;61787;42.022;23.078;2023-05-29T00:08:47;3.73;;;2.73;;
20014;SDS011;61787;42.022;23.078;2023-05-29T00:09:49;4.97;;;3.00;;
20014;SDS011;61787;42.022;23.078;2023-05-29T00:10:50;4.23;;;2.80;;
20014;SDS011;61787;42.022;23.078;2023-05-29T00:11:52;5.93;;;2.77;;
20014;SDS011;61787;42.022;23.078;2023-05-29T00:12:54;3.17;;;2.70;;
20014;SDS011;61787;42.022;23.078;2023-05-29T00:13:57;5.10;;;3.00;;
20014;SDS011;61787;42.022;23.078;2023-05-29T00:14:59;4.20;;;2.90;;
20014;SDS011;61787;42.022;23.078;2023-05-29T00:16:01;6.00;;;2.80;;
20014;SDS011;61787;42.022;23.078;2023-05-29T00:17:04;4.50;;;2.83;;
20014;SDS011;61787;42.022;23.078;2023-05-29T00:18:07;5.27;;;2.80;;
20014;SDS011;61787;42.022;23.078;2023-05-29T00:19:09;3.27;;;2.97;;
20014;SDS011;61787;42.022;23.078;2023-05-29T00:20:10;4.87;;;3.17;;
20014;SDS011;61787;42.022;23.078;2023-05-29T00:21:13;5.87;;;3.20;;
20014;SDS011;61787;42.022;23.078;2023-05-29T00:22:15;4.33;;;3.00;;
20014;SDS011;61787;42.022;23.078;2023-05-29T00:23:17;7.60;;;3.47;;
20014;SDS011;61787;42.022;23.078;2023-05-29T00:24:19;4.53;;;3.30;;
20014;SDS011;61787;42.022;23.078;2023-05-29T00:25:21;3.60;;;2.93;;
20014;SDS011;61787;42.022;23.078;2023-05-29T00:26:22;5.43;;;3.33;;
20014;SDS011;61787;42.022;23.078;2023-05-29T00:27:24;5.60;;;3.57;;
20014;SDS011;61787;42.022;23.078;2023-05-29T00:28:26;5.50;;;3.70;;
20014;SDS011;61787;42.022;23.078;2023-05-29T00:29:28;6.50;;;4.40;;
20014;SDS011;61787;42.022;23.078;2023-05-29T00:30:30;6.50;;;4.03;;
20014;SDS011;61787;42.022;23.078;2023-05-29T00:31:31;5.83;;;4.17;;
20014;SDS011;61787;42.022;23.078;2023-05-29T00:32:33;8.77;;;4.33;;
20014;SDS011;61787;42.022;23.078;2023-05-29T00:33:35;8.53;;;4.30;;
20014;SDS011;61787;42.022;23.078;2023-05-29T00:34:37;7.43;;;4.30;;
20014;SDS011;61787;42.022;23.078;2023-05-29T00:35:39;7.77;;;4.57;;
20014;SDS011;61787;42.022;23.078;2023-05-29T00:36:41;5.57;;;4.53;;
20014;SDS011;61787;42.022;23.078;2023-05-29T00:37:42;6.43;;;4.37;;
20014;SDS011;61787;42.022;23.078;2023-05-29T00:38:44;8.03;;;4.00;;
20014;SDS011;61787;42.022;23.078;2023-05-29T00:39:46;7.73;;;4.27;;
20014;SDS011;61787;42.022;23.078;2023-05-29T00:40:47;7.57;;;4.63;;
20014;SDS011;61787;42.022;23.078;2023-05-29T00:41:49;5.93;;;4.27;;
20014;SDS011;61787;42.022;23.078;2023-05-29T00:42:52;8.37;;;4.77;;
20014;SDS011;61787;42.022;23.078;2023-05-29T00:43:53;8.07;;;3.87;;
20014;SDS011;61787;42.022;23.078;2023-05-29T00:44:55;7.13;;;3.80;;
20014;SDS011;61787;42.022;23.078;2023-05-29T00:45:57;5.20;;;3.60;;
20014;SDS011;61787;42.022;23.078;2023-05-29T00:46:59;7.70;;;3.73;;
20014;SDS011;61787;42.022;23.078;2023-05-29T00:48:02;5.77;;;3.50;;
20014;SDS011;61787;42.022;23.078;2023-05-29T00:49:04;8.50;;;3.67;;
20014;SDS011;61787;42.022;23.078;2023-05-29T00:50:07;6.87;;;3.20;;
20014;SDS011;61787;42.022;23.078;2023-05-29T00:51:12;4.90;;;2.90;;
20014;SDS011;61787;42.022;23.078;2023-05-29T00:52:15;7.40;;;3.63;;
20014;SDS011;61787;42.022;23.078;2023-05-29T00:53:16;4.33;;;3.77;;
20014;SDS011;61787;42.022;23.078;2023-05-29T00:54:20;5.50;;;3.70;;
20014;SDS011;61787;42.022;23.078;2023-05-29T00:55:24;4.77;;;3.07;;
20014;SDS011;61787;42.022;23.078;2023-05-29T00:56:26;4.37;;;3.53;;
20014;SDS011;61787;42.022;23.078;2023-05-29T00:57:28;6.13;;;3.47;;
20014;SDS011;61787;42.022;23.078;2023-05-29T00:58:29;4.97;;;3.23;;
20014;SDS011;61787;42.022;23.078;2023-05-29T00:59:33;5.00;;;3.30;;
20014;SDS011;61787;42.022;23.078;2023-05-29T01:00:35;4.87;;;3.00;;
20014;SDS011;61787;42.022;23.078;2023-05-29T01:01:37;4.77;;;2.80;;
20014;SDS011;61787;42.022;23.078;2023-05-29T01:02:41;5.00;;;3.40;;
20014;SDS011;61787;42.022;23.078;2023-05-29T01:03:46;4.50;;;3.27;;
20014;SDS011;61787;42.022;23.078;2023-05-29T01:04:50;4.17;;;3.00;;
20014;SDS011;61787;42.022;23.078;2023-05-29T01:05:55;4.63;;;3.37;;
20014;SDS011;61787;42.022;23.078;2023-05-29T01:07:00;6.50;;;3.50;;
20014;SDS011;61787;42.022;23.078;2023-05-29T01:08:03;4.97;;;3.37;;
20014;SDS011;61787;42.022;23.078;2023-05-29T01:09:05;5.47;;;3.37;;
20014;SDS011;61787;42.022;23.078;2023-05-29T01:10:07;5.97;;;3.20;;
20014;SDS011;61787;42.022;23.078;2023-05-29T01:11:18;4.10;;;3.03;;
20014;SDS011;61787;42.022;23.078;2023-05-29T01:13:53;5.27;;;3.70;;
20014;SDS011;61787;42.022;23.078;2023-05-29T01:16:26;6.97;;;3.67;;
20014;SDS011;61787;42.022;23.078;2023-05-29T01:17:42;5.30;;;3.63;;
20014;SDS011;61787;42.022;23.078;2023-05-29T01:20:27;7.33;;;4.27;;
20014;SDS011;61787;42.022;23.078;2023-05-29T01:23:07;7.43;;;4.10;;
20014;SDS011;61787;42.022;23.078;2023-05-29T01:24:14;4.90;;;4.20;;
20014;SDS011;61787;42.022;23.078;2023-05-29T01:27:24;5.57;;;4.30;;
20014;SDS011;61787;42.022;23.078;2023-05-29T01:28:20;4.60;;;4.10;;
20014;SDS011;61787;42.022;23.078;2023-05-29T01:29:28;5.30;;;3.87;;
20014;SDS011;61787;42.022;23.078;2023-05-29T01:30:32;6.63;;;3.97;;
20014;SDS011;61787;42.022;23.078;2023-05-29T01:31:34;6.43;;;4.57;;
20014;SDS011;61787;42.022;23.078;2023-05-29T01:32:38;4.73;;;4.17;;
20014;SDS011;61787;42.022;23.078;2023-05-29T01:33:41;6.80;;;3.93;;
20014;SDS011;61787;42.022;23.078;2023-05-29T01:34:42;6.47;;;4.50;;
20014;SDS011;61787;42.022;23.078;2023-05-29T01:35:44;5.93;;;4.20;;
20014;SDS011;61787;42.022;23.078;2023-05-29T01:36:46;5.23;;;3.60;;
20014;SDS011;61787;42.022;23.078;2023-05-29T01:37:47;6.90;;;4.37;;
20014;SDS011;61787;42.022;23.078;2023-05-29T01:38:50;8.50;;;4.60;;
20014;SDS011;61787;42.022;23.078;2023-05-29T01:39:53;7.23;;;4.40;;
20014;SDS011;61787;42.022;23.078;2023-05-29T01:40:55;6.47;;;4.30;;
20014;SDS011;61787;42.022;23.078;2023-05-29T01:41:56;5.93;;;4.20;;
20014;SDS011;61787;42.022;23.078;2023-05-29T01:43:00;7.20;;;4.63;;
20014;SDS011;61787;42.022;23.078;2023-05-29T01:44:04;7.07;;;4.50;;
20014;SDS011;61787;42.022;23.078;2023-05-29T01:45:10;4.40;;;3.73;;
20014;SDS011;61787;42.022;23.078;2023-05-29T01:46:13;4.43;;;3.90;;
20014;SDS011;61787;42.022;23.078;2023-05-29T01:47:15;6.30;;;3.70;;
20014;SDS011;61787;42.022;23.078;2023-05-29T01:48:18;4.30;;;3.00;;
20014;SDS011;61787;42.022;23.078;2023-05-29T01:49:19;6.40;;;3.30;;
20014;SDS011;61787;42.022;23.078;2023-05-29T01:50:24;4.07;;;3.20;;
20014;SDS011;61787;42.022;23.078;2023-05-29T01:51:27;5.10;;;3.13;;
20014;SDS011;61787;42.022;23.078;2023-05-29T01:52:29;5.93;;;3.70;;
20014;SDS011;61787;42.022;23.078;2023-05-29T01:53:30;5.23;;;3.23;;
20014;SDS011;61787;42.022;23.078;2023-05-29T01:54:32;7.83;;;5.07;;
20014;SDS011;61787;42.022;23.078;2023-05-29T01:55:34;4.73;;;3.80;;
20014;SDS011;61787;42.022;23.078;2023-05-29T01:56:35;6.23;;;3.97;;
20014;SDS011;61787;42.022;23.078;2023-05-29T01:57:38;3.90;;;3.50;;
20014;SDS011;61787;42.022;23.078;2023-05-29T01:58:40;5.27;;;3.50;;
20014;SDS011;61787;42.022;23.078;2023-05-29T01:59:43;4.23;;;2.93;;
20014;SDS011;61787;42.022;23.078;2023-05-29T02:00:44;4.33;;;3.27;;
20014;SDS011;61787;42.022;23.078;2023-05-29T02:01:47;5.17;;;3.40;;
20014;SDS011;61787;42.022;23.078;2023-05-29T02:02:48;6.60;;;3.43;;
20014;SDS011;61787;42.022;23.078;2023-05-29T02:03:50;4.53;;;3.03;;
20014;SDS011;61787;42.022;23.078;2023-05-29T02:04:52;4.67;;;3.67;;
20014;SDS011;61787;42.022;23.078;2023-05-29T02:05:55;9.43;;;3.37;;
20014;SDS011;61787;42.022;23.078;2023-05-29T02:06:58;5.07;;;3.47;;
20014;SDS011;61787;42.022;23.078;2023-05-29T02:08:00;4.27;;;3.63;;
20014;SDS011;61787;42.022;23.078;2023-05-29T02:09:02;4.93;;;3.67;;
20014;SDS011;61787;42.022;23.078;2023-05-29T02:10:04;5.30;;;4.13;;
20014;SDS011;61787;42.022;23.078;2023-05-29T02:11:06;7.53;;;3.33;;
20014;SDS011;61787;42.022;23.078;2023-05-29T02:12:08;7.13;;;3.60;;
20014;SDS011;61787;42.022;23.078;2023-05-29T02:13:10;5.50;;;3.40;;
20014;SDS011;61787;42.022;23.078;2023-05-29T02:14:11;10.23;;;3.50;;
20014;SDS011;61787;42.022;23.078;2023-05-29T02:15:13;6.00;;;3.33;;
20014;SDS011;61787;42.022;23.078;2023-05-29T02:16:14;4.43;;;3.50;;
20014;SDS011;61787;42.022;23.078;2023-05-29T02:17:16;7.07;;;3.97;;
20014;SDS011;61787;42.022;23.078;2023-05-29T02:18:20;4.30;;;3.60;;
20014;SDS011;61787;42.022;23.078;2023-05-29T02:19:22;4.87;;;3.13;;
20014;SDS011;61787;42.022;23.078;2023-05-29T02:20:26;4.03;;;3.33;;
20014;SDS011;61787;42.022;23.078;2023-05-29T02:21:28;5.03;;;3.47;;
20014;SDS011;61787;42.022;23.078;2023-05-29T02:22:30;5.90;;;3.20;;
20014;SDS011;61787;42.022;23.078;2023-05-29T02:23:31;4.83;;;3.30;;
20014;SDS011;61787;42.022;23.078;2023-05-29T02:24:33;4.93;;;3.40;;
20014;SDS011;61787;42.022;23.078;2023-05-29T02:25:34;6.10;;;3.80;;
20014;SDS011;61787;42.022;23.078;2023-05-29T02:26:37;4.30;;;3.27;;
20014;SDS011;61787;42.022;23.078;2023-05-29T02:27:38;4.67;;;3.20;;
20014;SDS011;61787;42.022;23.078;2023-05-29T02:28:40;5.40;;;3.33;;
20014;SDS011;61787;42.022;23.078;2023-05-29T02:29:41;4.37;;;3.30;;
20014;SDS011;61787;42.022;23.078;2023-05-29T02:30:43;6.47;;;3.50;;
20014;SDS011;61787;42.022;23.078;2023-05-29T02:31:45;6.03;;;3.53;;
20014;SDS011;61787;42.022;23.078;2023-05-29T02:32:46;7.00;;;3.93;;
20014;SDS011;61787;42.022;23.078;2023-05-29T02:33:48;6.57;;;3.47;;
20014;SDS011;61787;42.022;23.078;2023-05-29T02:34:50;6.00;;;4.00;;
20014;SDS011;61787;42.022;23.078;2023-05-29T02:35:53;4.60;;;3.83;;
20014;SDS011;61787;42.022;23.078;2023-05-29T02:36:55;8.03;;;3.77;;
20014;SDS011;61787;42.022;23.078;2023-05-29T02:37:58;4.90;;;3.27;;
20014;SDS011;61787;42.022;23.078;2023-05-29T02:38:59;4.43;;;3.70;;
20014;SDS011;61787;42.022;23.078;2023-05-29T02:40:01;4.57;;;3.50;;
20014;SDS011;61787;42.022;23.078;2023-05-29T02:41:02;6.17;;;4.17;;
20014;SDS011;61787;42.022;23.078;2023-05-29T02:42:04;5.00;;;3.53;;
20014;SDS011;61787;42.022;23.078;2023-05-29T02:43:07;6.97;;;3.83;;
20014;SDS011;61787;42.022;23.078;2023-05-29T02:44:10;5.13;;;3.50;;
20014;SDS011;61787;42.022;23.078;2023-05-29T02:45:13;5.77;;;3.30;;
20014;SDS011;61787;42.022;23.078;2023-05-29T02:46:14;5.50;;;3.70;;
20014;SDS011;61787;42.022;23.078;2023-05-29T02:47:16;5.67;;;3.80;;
20014;SDS011;61787;42.022;23.078;2023-05-29T02:48:18;7.37;;;4.07;;
20014;SDS011;61787;42.022;23.078;2023-05-29T02:49:19;5.07;;;3.30;;
20014;SDS011;61787;42.022;23.078;2023-05-29T02:50:21;6.03;;;3.43;;
20014;SDS011;61787;42.022;23.078;2023-05-29T02:51:22;4.20;;;3.80;;
20014;SDS011;61787;42.022;23.078;2023-05-29T02:52:24;4.80;;;3.80;;
20014;SDS011;61787;42.022;23.078;2023-05-29T02:53:26;4.47;;;3.60;;
20014;SDS011;61787;42.022;23.078;2023-05-29T02:54:27;4.57;;;3.87;;
20014;SDS011;61787;42.022;23.078;2023-05-29T02:55:29;4.20;;;3.67;;
20014;SDS011;61787;42.022;23.078;2023-05-29T02:56:33;7.20;;;3.90;;
20014;SDS011;61787;42.022;23.078;2023-05-29T02:57:35;4.77;;;3.97;;
20014;SDS011;61787;42.022;23.078;2023-05-29T02:58:37;4.83;;;4.20;;
20014;SDS011;61787;42.022;23.078;2023-05-29T02:59:39;6.47;;;4.50;;
20014;SDS011;61787;42.022;23.078;2023-05-29T03:00:40;5.07;;;4.57;;
20014;SDS011;61787;42.022;23.078;2023-05-29T03:01:42;6.73;;;4.70;;
20014;SDS011;61787;42.022;23.078;2023-05-29T03:02:44;7.97;;;4.80;;
20014;SDS011;61787;42.022;23.078;2023-05-29T03:03:45;6.43;;;5.10;;
20014;SDS011;61787;42.022;23.078;2023-05-29T03:04:47;8.20;;;4.63;;
20014;SDS011;61787;42.022;23.078;2023-05-29T03:05:52;5.30;;;4.33;;
20014;SDS011;61787;42.022;23.078;2023-05-29T03:06:53;6.07;;;4.33;;
20014;SDS011;61787;42.022;23.078;2023-05-29T03:07:55;5.80;;;4.17;;
20014;SDS011;61787;42.022;23.078;2023-05-29T03:08:57;7.43;;;4.23;;
20014;SDS011;61787;42.022;23.078;2023-05-29T03:10:00;7.73;;;4.57;;
20014;SDS011;61787;42.022;23.078;2023-05-29T03:11:02;5.33;;;4.20;;
20014;SDS011;61787;42.022;23.078;2023-05-29T03:12:05;9.33;;;4.30;;
20014;SDS011;61787;42.022;23.078;2023-05-29T03:13:06;7.10;;;3.83;;
20014;SDS011;61787;42.022;23.078;2023-05-29T03:14:08;4.87;;;4.00;;
20014;SDS011;61787;42.022;23.078;2023-05-29T03:15:10;8.00;;;3.73;;
20014;SDS011;61787;42.022;23.078;2023-05-29T03:16:11;7.67;;;4.20;;
20014;SDS011;61787;42.022;23.078;2023-05-29T03:17:14;4.60;;;3.87;;
20014;SDS011;61787;42.022;23.078;2023-05-29T03:18:16;7.63;;;4.23;;
20014;SDS011;61787;42.022;23.078;2023-05-29T03:19:18;4.43;;;4.03;;
20014;SDS011;61787;42.022;23.078;2023-05-29T03:20:19;4.23;;;3.30;;
20014;SDS011;61787;42.022;23.078;2023-05-29T03:21:21;4.00;;;3.40;;
20014;SDS011;61787;42.022;23.078;2023-05-29T03:22:22;8.33;;;4.27;;
20014;SDS011;61787;42.022;23.078;2023-05-29T03:23:24;7.27;;;3.57;;
20014;SDS011;61787;42.022;23.078;2023-05-29T03:24:27;5.10;;;3.70;;
20014;SDS011;61787;42.022;23.078;2023-05-29T03:25:29;5.50;;;3.90;;
20014;SDS011;61787;42.022;23.078;2023-05-29T03:26:31;6.40;;;3.80;;
20014;SDS011;61787;42.022;23.078;2023-05-29T03:27:32;5.23;;;3.47;;
20014;SDS011;61787;42.022;23.078;2023-05-29T03:28:34;6.13;;;4.13;;
20014;SDS011;61787;42.022;23.078;2023-05-29T03:29:37;9.33;;;4.30;;
20014;SDS011;61787;42.022;23.078;2023-05-29T03:30:38;6.83;;;4.20;;
20014;SDS011;61787;42.022;23.078;2023-05-29T03:31:40;8.60;;;4.33;;
20014;SDS011;61787;42.022;23.078;2023-05-29T03:32:42;4.73;;;4.23;;
20014;SDS011;61787;42.022;23.078;2023-05-29T03:33:43;5.47;;;4.50;;
20014;SDS011;61787;42.022;23.078;2023-05-29T03:34:46;7.23;;;4.70;;
20014;SDS011;61787;42.022;23.078;2023-05-29T03:35:49;8.70;;;5.20;;
20014;SDS011;61787;42.022;23.078;2023-05-29T03:36:50;8.97;;;5.00;;
20014;SDS011;61787;42.022;23.078;2023-05-29T03:37:52;5.77;;;4.53;;
20014;SDS011;61787;42.022;23.078;2023-05-29T03:38:54;5.63;;;4.40;;
20014;SDS011;61787;42.022;23.078;2023-05-29T03:39:55;10.67;;;4.23;;
20014;SDS011;61787;42.022;23.078;2023-05-29T03:40:57;5.93;;;4.60;;
20014;SDS011;61787;42.022;23.078;2023-05-29T03:41:59;4.87;;;3.83;;
20014;SDS011;61787;42.022;23.078;2023-05-29T03:43:01;4.27;;;3.87;;
20014;SDS011;61787;42.022;23.078;2023-05-29T03:44:02;5.17;;;3.73;;
20014;SDS011;61787;42.022;23.078;2023-05-29T03:45:04;7.73;;;3.90;;
20014;SDS011;61787;42.022;23.078;2023-05-29T03:46:06;4.23;;;3.77;;
20014;SDS011;61787;42.022;23.078;2023-05-29T03:47:08;6.03;;;3.37;;
20014;SDS011;61787;42.022;23.078;2023-05-29T03:48:10;5.67;;;3.60;;
20014;SDS011;61787;42.022;23.078;2023-05-29T03:49:12;4.53;;;3.73;;
20014;SDS011;61787;42.022;23.078;2023-05-29T03:50:13;4.03;;;3.17;;
20014;SDS011;61787;42.022;23.078;2023-05-29T03:51:16;7.00;;;3.50;;
20014;SDS011;61787;42.022;23.078;2023-05-29T03:52:18;4.33;;;3.17;;
20014;SDS011;61787;42.022;23.078;2023-05-29T03:53:19;4.27;;;3.30;;
20014;SDS011;61787;42.022;23.078;2023-05-29T03:54:21;10.63;;;3.37;;
20014;SDS011;61787;42.022;23.078;2023-05-29T03:55:23;4.30;;;3.13;;
20014;SDS011;61787;42.022;23.078;2023-05-29T03:56:24;6.57;;;3.37;;
20014;SDS011;61787;42.022;23.078;2023-05-29T03:57:26;3.90;;;3.03;;
20014;SDS011;61787;42.022;23.078;2023-05-29T03:58:28;5.67;;;3.60;;
20014;SDS011;61787;42.022;23.078;2023-05-29T03:59:30;5.13;;;3.60;;
20014;SDS011;61787;42.022;23.078;2023-05-29T04:00:32;4.60;;;3.60;;
20014;SDS011;61787;42.022;23.078;2023-05-29T04:01:33;6.63;;;3.60;;
20014;SDS011;61787;42.022;23.078;2023-05-29T04:02:36;7.47;;;3.80;;
20014;SDS011;61787;42.022;23.078;2023-05-29T04:03:38;7.90;;;3.50;;
20014;SDS011;61787;42.022;23.078;2023-05-29T04:04:40;5.80;;;3.50;;
20014;SDS011;61787;42.022;23.078;2023-05-29T04:05:42;5.63;;;3.37;;
20014;SDS011;61787;42.022;23.078;2023-05-29T04:06:43;4.10;;;3.50;;
20014;SDS011;61787;42.022;23.078;2023-05-29T04:07:46;4.67;;;4.17;;
20014;SDS011;61787;42.022;23.078;2023-05-29T04:08:47;6.93;;;4.97;;
20014;SDS011;61787;42.022;23.078;2023-05-29T04:09:49;10.83;;;6.90;;
20014;SDS011;61787;42.022;23.078;2023-05-29T04:10:50;16.30;;;6.90;;
20014;SDS011;61787;42.022;23.078;2023-05-29T04:11:55;13.33;;;6.97;;
20014;SDS011;61787;42.022;23.078;2023-05-29T04:12:56;14.03;;;7.03;;
20014;SDS011;61787;42.022;23.078;2023-05-29T04:13:58;11.90;;;6.60;;
20014;SDS011;61787;42.022;23.078;2023-05-29T04:14:59;10.77;;;6.20;;
20014;SDS011;61787;42.022;23.078;2023-05-29T04:16:01;11.73;;;6.70;;
20014;SDS011;61787;42.022;23.078;2023-05-29T04:17:03;10.20;;;6.93;;
20014;SDS011;61787;42.022;23.078;2023-05-29T04:18:04;12.00;;;7.10;;
20014;SDS011;61787;42.022;23.078;2023-05-29T04:19:07;8.97;;;6.80;;
20014;SDS011;61787;42.022;23.078;2023-05-29T04:20:08;8.63;;;6.37;;
20014;SDS011;61787;42.022;23.078;2023-05-29T04:21:11;10.37;;;7.30;;
20014;SDS011;61787;42.022;23.078;2023-05-29T04:22:13;9.60;;;6.67;;
20014;SDS011;61787;42.022;23.078;2023-05-29T04:23:15;10.27;;;6.70;;
20014;SDS011;61787;42.022;23.078;2023-05-29T04:24:16;10.40;;;6.47;;
20014;SDS011;61787;42.022;23.078;2023-05-29T04:25:18;10.80;;;6.60;;
20014;SDS011;61787;42.022;23.078;2023-05-29T04:26:20;8.83;;;5.77;;
20014;SDS011;61787;42.022;23.078;2023-05-29T04:27:26;7.60;;;5.60;;
20014;SDS011;61787;42.022;23.078;2023-05-29T04:28:27;12.27;;;5.90;;
20014;SDS011;61787;42.022;23.078;2023-05-29T04:29:29;9.73;;;6.03;;
20014;SDS011;61787;42.022;23.078;2023-05-29T04:30:31;7.17;;;5.67;;
20014;SDS011;61787;42.022;23.078;2023-05-29T04:31:35;9.37;;;5.50;;
20014;SDS011;61787;42.022;23.078;2023-05-29T04:32:38;10.03;;;5.70;;
20014;SDS011;61787;42.022;23.078;2023-05-29T04:33:41;9.93;;;6.20;;
20014;SDS011;61787;42.022;23.078;2023-05-29T04:34:46;8.80;;;6.00;;
20014;SDS011;61787;42.022;23.078;2023-05-29T04:35:49;8.37;;;5.40;;
20014;SDS011;61787;42.022;23.078;2023-05-29T04:36:51;8.17;;;5.47;;
20014;SDS011;61787;42.022;23.078;2023-05-29T04:37:53;7.63;;;4.85;;
20014;SDS011;61787;42.022;23.078;2023-05-29T04:38:54;8.73;;;5.43;;
20014;SDS011;61787;42.022;23.078;2023-05-29T04:39:56;11.27;;;5.93;;
20014;SDS011;61787;42.022;23.078;2023-05-29T04:40:58;7.53;;;5.57;;
20014;SDS011;61787;42.022;23.078;2023-05-29T04:42:00;7.88;;;5.30;;
20014;SDS011;61787;42.022;23.078;2023-05-29T04:43:02;8.38;;;5.30;;
20014;SDS011;61787;42.022;23.078;2023-05-29T04:44:06;7.40;;;4.85;;
20014;SDS011;61787;42.022;23.078;2023-05-29T04:45:09;11.63;;;5.63;;
20014;SDS011;61787;42.022;23.078;2023-05-29T04:46:13;7.82;;;4.97;;
20014;SDS011;61787;42.022;23.078;2023-05-29T04:47:17;7.55;;;5.10;;
20014;SDS011;61787;42.022;23.078;2023-05-29T04:48:18;7.05;;;4.55;;
20014;SDS011;61787;42.022;23.078;2023-05-29T04:49:20;10.30;;;5.15;;
20014;SDS011;61787;42.022;23.078;2023-05-29T04:50:22;7.15;;;4.93;;
20014;SDS011;61787;42.022;23.078;2023-05-29T04:51:24;8.05;;;5.03;;
20014;SDS011;61787;42.022;23.078;2023-05-29T04:52:26;7.93;;;4.75;;
20014;SDS011;61787;42.022;23.078;2023-05-29T04:53:28;11.90;;;5.18;;
20014;SDS011;61787;42.022;23.078;2023-05-29T04:54:31;9.00;;;5.18;;
20014;SDS011;61787;42.022;23.078;2023-05-29T04:55:35;7.65;;;4.75;;
20014;SDS011;61787;42.022;23.078;2023-05-29T04:56:36;7.38;;;5.05;;
20014;SDS011;61787;42.022;23.078;2023-05-29T04:57:38;7.43;;;4.88;;
20014;SDS011;61787;42.022;23.078;2023-05-29T04:58:41;8.38;;;4.90;;
20014;SDS011;61787;42.022;23.078;2023-05-29T04:59:43;5.72;;;4.45;;
20014;SDS011;61787;42.022;23.078;2023-05-29T05:00:45;9.95;;;4.70;;
20014;SDS011;61787;42.022;23.078;2023-05-29T05:01:46;10.30;;;5.32;;
20014;SDS011;61787;42.022;23.078;2023-05-29T05:02:49;6.80;;;5.13;;
20014;SDS011;61787;42.022;23.078;2023-05-29T05:03:52;8.55;;;4.68;;
20014;SDS011;61787;42.022;23.078;2023-05-29T05:04:57;6.10;;;4.75;;
20014;SDS011;61787;42.022;23.078;2023-05-29T05:05:59;8.55;;;5.30;;
20014;SDS011;61787;42.022;23.078;2023-05-29T05:07:04;8.07;;;5.20;;
20014;SDS011;61787;42.022;23.078;2023-05-29T05:08:06;10.65;;;5.10;;
20014;SDS011;61787;42.022;23.078;2023-05-29T05:09:08;8.65;;;4.88;;
20014;SDS011;61787;42.022;23.078;2023-05-29T05:10:10;8.45;;;4.78;;
20014;SDS011;61787;42.022;23.078;2023-05-29T05:11:12;8.15;;;5.28;;
20014;SDS011;61787;42.022;23.078;2023-05-29T05:12:14;5.80;;;4.45;;
20014;SDS011;61787;42.022;23.078;2023-05-29T05:13:17;7.90;;;4.80;;
20014;SDS011;61787;42.022;23.078;2023-05-29T05:14:18;7.93;;;4.82;;
20014;SDS011;61787;42.022;23.078;2023-05-29T05:15:20;7.63;;;5.15;;
20014;SDS011;61787;42.022;23.078;2023-05-29T05:16:21;8.43;;;5.03;;
20014;SDS011;61787;42.022;23.078;2023-05-29T05:17:23;9.43;;;5.20;;
20014;SDS011;61787;42.022;23.078;2023-05-29T05:18:25;10.80;;;5.13;;
20014;SDS011;61787;42.022;23.078;2023-05-29T05:19:26;7.57;;;4.80;;
20014;SDS011;61787;42.022;23.078;2023-05-29T05:20:28;9.73;;;5.18;;
20014;SDS011;61787;42.022;23.078;2023-05-29T05:21:30;8.18;;;5.20;;
20014;SDS011;61787;42.022;23.078;2023-05-29T05:22:32;8.27;;;5.20;;
20014;SDS011;61787;42.022;23.078;2023-05-29T05:23:34;7.78;;;4.40;;
20014;SDS011;61787;42.022;23.078;2023-05-29T05:24:56;10.48;;;4.93;;
20014;SDS011;61787;42.022;23.078;2023-05-29T05:25:57;7.20;;;5.05;;
20014;SDS011;61787;42.022;23.078;2023-05-29T05:26:59;8.10;;;4.60;;
20014;SDS011;61787;42.022;23.078;2023-05-29T05:28:01;9.48;;;4.05;;
20014;SDS011;61787;42.022;23.078;2023-05-29T05:29:04;7.15;;;4.22;;
20014;SDS011;61787;42.022;23.078;2023-05-29T05:30:06;7.85;;;4.45;;
20014;SDS011;61787;42.022;23.078;2023-05-29T05:31:09;6.20;;;3.78;;
20014;SDS011;61787;42.022;23.078;2023-05-29T05:32:10;8.98;;;4.57;;
20014;SDS011;61787;42.022;23.078;2023-05-29T05:33:12;8.20;;;4.63;;
20014;SDS011;61787;42.022;23.078;2023-05-29T05:34:14;7.15;;;4.28;;
20014;SDS011;61787;42.022;23.078;2023-05-29T05:35:16;9.07;;;3.95;;
20014;SDS011;61787;42.022;23.078;2023-05-29T05:36:18;8.45;;;4.10;;
20014;SDS011;61787;42.022;23.078;2023-05-29T05:37:19;7.80;;;3.97;;
20014;SDS011;61787;42.022;23.078;2023-05-29T05:38:24;7.28;;;4.00;;
20014;SDS011;61787;42.022;23.078;2023-05-29T05:39:26;6.50;;;3.75;;
20014;SDS011;61787;42.022;23.078;2023-05-29T05:40:27;4.95;;;3.70;;
20014;SDS011;61787;42.022;23.078;2023-05-29T05:41:29;8.98;;;4.78;;
20014;SDS011;61787;42.022;23.078;2023-05-29T05:42:31;5.75;;;4.20;;
20014;SDS011;61787;42.022;23.078;2023-05-29T05:43:32;8.68;;;4.53;;
20014;SDS011;61787;42.022;23.078;2023-05-29T05:44:34;9.60;;;3.83;;
20014;SDS011;61787;42.022;23.078;2023-05-29T05:45:36;8.73;;;3.80;;
20014;SDS011;61787;42.022;23.078;2023-05-29T05:46:39;7.75;;;3.83;;
20014;SDS011;61787;42.022;23.078;2023-05-29T05:47:41;6.40;;;3.80;;
20014;SDS011;61787;42.022;23.078;2023-05-29T05:48:42;5.55;;;3.30;;
20014;SDS011;61787;42.022;23.078;2023-05-29T05:49:44;5.82;;;4.00;;
20014;SDS011;61787;42.022;23.078;2023-05-29T05:50:46;7.80;;;3.83;;
20014;SDS011;61787;42.022;23.078;2023-05-29T05:51:47;8.23;;;3.90;;
20014;SDS011;61787;42.022;23.078;2023-05-29T05:52:51;5.15;;;3.75;;
20014;SDS011;61787;42.022;23.078;2023-05-29T05:53:55;5.05;;;3.85;;
20014;SDS011;61787;42.022;23.078;2023-05-29T05:54:57;6.72;;;3.70;;
20014;SDS011;61787;42.022;23.078;2023-05-29T05:55:59;11.20;;;4.10;;
20014;SDS011;61787;42.022;23.078;2023-05-29T05:57:00;7.22;;;3.60;;
20014;SDS011;61787;42.022;23.078;2023-05-29T05:58:02;8.65;;;3.92;;
20014;SDS011;61787;42.022;23.078;2023-05-29T05:59:03;9.55;;;3.70;;
20014;SDS011;61787;42.022;23.078;2023-05-29T06:00:06;8.65;;;3.70;;
20014;SDS011;61787;42.022;23.078;2023-05-29T06:01:14;8.38;;;4.25;;
20014;SDS011;61787;42.022;23.078;2023-05-29T06:02:16;6.22;;;3.50;;
20014;SDS011;61787;42.022;23.078;2023-05-29T06:03:18;6.88;;;3.65;;
20014;SDS011;61787;42.022;23.078;2023-05-29T06:04:19;7.15;;;4.03;;
20014;SDS011;61787;42.022;23.078;2023-05-29T06:05:22;7.07;;;3.80;;
20014;SDS011;61787;42.022;23.078;2023-05-29T06:06:23;9.43;;;4.28;;
20014;SDS011;61787;42.022;23.078;2023-05-29T06:07:25;6.78;;;3.72;;
20014;SDS011;61787;42.022;23.078;2023-05-29T06:08:27;9.02;;;4.15;;
20014;SDS011;61787;42.022;23.078;2023-05-29T06:09:29;8.63;;;3.92;;
20014;SDS011;61787;42.022;23.078;2023-05-29T06:10:30;5.95;;;3.83;;
20014;SDS011;61787;42.022;23.078;2023-05-29T06:11:32;6.40;;;4.00;;
20014;SDS011;61787;42.022;23.078;2023-05-29T06:12:34;9.88;;;4.15;;
20014;SDS011;61787;42.022;23.078;2023-05-29T06:13:36;7.22;;;4.07;;
20014;SDS011;61787;42.022;23.078;2023-05-29T06:14:37;6.82;;;4.43;;
20014;SDS011;61787;42.022;23.078;2023-05-29T06:15:39;8.98;;;4.85;;
20014;SDS011;61787;42.022;23.078;2023-05-29T06:16:41;7.10;;;5.13;;
20014;SDS011;61787;42.022;23.078;2023-05-29T06:17:43;8.23;;;4.60;;